Time;durP1;ratioP1;P1;durP2;ratioP2;P2;SDS_P1;SDS_P2;PMS_P1;PMS_P2;Temp;Humidity;BMP_temperature;BMP_pressure;BME280_temperature;BME280_humidity;BME280_pressure;Samples;Min_cycle;Max_cycle;Signal;HPM_P1;HPM_P2
2022/01/21 00:00:23;;;;;;;;;;;21.30;49.70;;;;;;3874761;22;19923;-85
2022/01/21 00:01:56;;;;;;;;;;;21.30;49.50;;;;;;3876885;23;19920;-85
2022/01/21 00:03:28;;;;;;;;;;;21.30;49.70;;;;;;3873746;22;20308;-85
2022/01/21 00:04:59;;;;;;;;;;;21.20;49.60;;;;;;3875525;23;19947;-85
2022/01/21 00:06:31;;;;;;;;;;;21.20;49.70;;;;;;3875365;23;20330;-84
2022/01/21 00:08:03;;;;;;;;;;;21.20;49.60;;;;;;3874360;22;20362;-85
2022/01/21 00:09:34;;;;;;;;;;;21.20;49.70;;;;;;3876096;23;19919;-85
2022/01/21 00:11:06;;;;;;;;;;;21.20;49.70;;;;;;3874635;23;20002;-85
2022/01/21 00:12:38;;;;;;;;;;;21.20;49.70;;;;;;3875494;22;19919;-85
2022/01/21 00:14:10;;;;;;;;;;;21.20;49.60;;;;;;3874563;23;20032;-83
2022/01/21 00:15:42;;;;;;;;;;;21.20;49.60;;;;;;3874087;22;20371;-85
2022/01/21 00:17:16;;;;;;;;;;;21.20;49.50;;;;;;3875603;22;20227;-85
2022/01/21 00:18:54;;;;;;;;;;;21.20;49.60;;;;;;3874148;23;19924;-84
2022/01/21 00:31:20;;;;;;;;;;;21.10;49.60;;;;;;3874405;22;19965;-85
2022/01/21 00:32:53;;;;;;;;;;;21.10;49.60;;;;;;3875902;22;19969;-84
2022/01/21 00:34:25;;;;;;;;;;;21.10;49.60;;;;;;3874639;23;20246;-85
2022/01/21 00:35:58;;;;;;;;;;;21.10;49.70;;;;;;3875316;23;19926;-85
2022/01/21 00:37:29;;;;;;;;;;;21.10;49.70;;;;;;3874611;22;19919;-85
2022/01/21 00:39:01;;;;;;;;;;;21.10;49.70;;;;;;3875087;23;19920;-84
2022/01/21 00:40:33;;;;;;;;;;;21.10;49.60;;;;;;3876330;23;19923;-85
2022/01/21 00:42:11;;;;;;;;;;;21.10;49.60;;;;;;3874665;23;19920;-84
2022/01/21 00:43:44;;;;;;;;;;;21.10;49.70;;;;;;3894480;22;19977;-83
2022/01/21 00:45:17;;;;;;;;;;;21.00;49.70;;;;;;3891453;22;20044;-84
2022/01/21 00:46:49;;;;;;;;;;;21.00;49.80;;;;;;3874888;23;19997;-85
2022/01/21 00:48:22;;;;;;;;;;;21.00;49.60;;;;;;3875046;22;19950;-85
2022/01/21 00:49:54;;;;;;;;;;;21.00;49.60;;;;;;3874500;23;20261;-85
2022/01/21 00:51:25;;;;;;;;;;;21.00;49.70;;;;;;3875761;23;19920;-84
2022/01/21 00:52:57;;;;;;;;;;;21.00;50.20;;;;;;3875007;22;20335;-86
2022/01/21 00:54:29;;;;;;;;;;;21.00;49.60;;;;;;3874957;23;19923;-86
2022/01/21 00:56:00;;;;;;;;;;;21.00;49.70;;;;;;3876271;23;19920;-85
2022/01/21 00:57:31;;;;;;;;;;;21.00;49.70;;;;;;3873636;22;19919;-84
2022/01/21 00:59:02;;;;;;;;;;;21.00;49.70;;;;;;3876021;23;19993;-84
2022/01/21 01:00:36;;;;;;;;;;;21.00;49.80;;;;;;3874496;22;19923;-84
2022/01/21 01:02:07;;;;;;;;;;;21.00;49.70;;;;;;3875431;23;19920;-84
2022/01/21 01:03:40;;;;;;;;;;;21.00;49.80;;;;;;3875697;22;19923;-85
2022/01/21 01:05:11;;;;;;;;;;;20.90;49.80;;;;;;3873388;23;20327;-85
2022/01/21 01:06:43;;;;;;;;;;;20.90;49.80;;;;;;3876308;23;19943;-84
2022/01/21 01:08:14;;;;;;;;;;;20.90;49.80;;;;;;3874365;22;19919;-84
2022/01/21 01:09:51;;;;;;;;;;;20.90;49.80;;;;;;3875098;23;20331;-85
2022/01/21 01:11:30;;;;;;;;;;;20.90;49.80;;;;;;3875651;23;19924;-85
2022/01/21 01:19:53;;;;;;;;;;;20.90;49.70;;;;;;3873905;22;19962;-85
2022/01/21 01:20:23;;;;;;;;;;;20.90;49.80;;;;;;3889637;22;19923;-87
2022/01/21 01:21:56;;;;;;;;;;;20.90;49.80;;;;;;3892930;22;19923;-86
2022/01/21 01:23:37;;;;;;;;;;;20.80;49.70;;;;;;3891453;22;19947;-87
2022/01/21 01:28:56;;;;;;;;;;;20.80;49.80;;;;;;3893828;22;19958;-89
2022/01/21 01:30:29;;;;;;;;;;;20.80;49.80;;;;;;3887839;22;19919;-87
2022/01/21 01:32:01;;;;;;;;;;;20.80;49.80;;;;;;3875568;23;19955;-86
2022/01/21 01:33:37;;;;;;;;;;;20.80;49.80;;;;;;3873198;22;19959;-87
2022/01/21 01:35:09;;;;;;;;;;;20.80;49.80;;;;;;3874355;23;19919;-86
2022/01/21 01:36:44;;;;;;;;;;;20.80;49.90;;;;;;3875496;23;20361;-86
2022/01/21 01:40:20;;;;;;;;;;;20.80;49.90;;;;;;3823233;23;20334;-86
2022/01/21 01:41:58;;;;;;;;;;;20.70;49.80;;;;;;3874847;23;19950;-86
2022/01/21 01:50:48;;;;;;;;;;;20.70;49.80;;;;;;3874584;23;19939;-86
2022/01/21 01:52:21;;;;;;;;;;;20.70;50.50;;;;;;3874565;22;19919;-86
2022/01/21 01:53:53;;;;;;;;;;;20.70;49.90;;;;;;3874400;23;19990;-86
2022/01/21 01:55:24;;;;;;;;;;;20.70;49.90;;;;;;3874529;23;19968;-85
2022/01/21 01:56:56;;;;;;;;;;;20.70;49.90;;;;;;3875461;23;19919;-86
2022/01/21 01:58:28;;;;;;;;;;;20.70;49.90;;;;;;3874366;22;20254;-86
2022/01/21 01:59:59;;;;;;;;;;;20.70;49.80;;;;;;3875548;23;19951;-86
2022/01/21 02:01:31;;;;;;;;;;;20.70;49.90;;;;;;3873243;22;19919;-87
2022/01/21 02:03:06;;;;;;;;;;;20.60;49.80;;;;;;3872656;22;19955;-86
2022/01/21 02:04:38;;;;;;;;;;;20.60;49.90;;;;;;3874927;23;20351;-86
2022/01/21 02:06:09;;;;;;;;;;;20.60;49.90;;;;;;3873959;23;19919;-87
2022/01/21 02:07:42;;;;;;;;;;;20.60;49.80;;;;;;3874204;22;19930;-86
2022/01/21 02:09:14;;;;;;;;;;;20.60;49.80;;;;;;3874707;23;20277;-87
2022/01/21 02:10:46;;;;;;;;;;;20.60;49.80;;;;;;3874260;23;19920;-87
2022/01/21 02:12:17;;;;;;;;;;;20.60;49.70;;;;;;3873988;22;20655;-86
2022/01/21 02:13:56;;;;;;;;;;;20.60;49.80;;;;;;3873361;23;19927;-86
2022/01/21 02:15:27;;;;;;;;;;;20.60;49.80;;;;;;3873486;22;19919;-86
2022/01/21 02:21:27;;;;;;;;;;;20.60;49.80;;;;;;3874976;23;19958;-86
2022/01/21 02:22:50;;;;;;;;;;;20.60;49.80;;;;;;3884705;22;19919;-86
2022/01/21 02:24:29;;;;;;;;;;;20.60;49.80;;;;;;3892914;22;19996;-89
2022/01/21 02:26:01;;;;;;;;;;;20.50;49.80;;;;;;3893506;22;19920;-87
2022/01/21 02:27:33;;;;;;;;;;;20.60;49.80;;;;;;3892710;22;19941;-87
2022/01/21 02:29:05;;;;;;;;;;;20.50;49.80;;;;;;3892454;22;19981;-88
2022/01/21 02:30:37;;;;;;;;;;;20.50;49.70;;;;;;3884824;22;19919;-87
2022/01/21 02:32:09;;;;;;;;;;;20.50;49.80;;;;;;3874102;23;20176;-88
2022/01/21 02:33:40;;;;;;;;;;;20.50;49.80;;;;;;3873224;23;19920;-87
2022/01/21 02:35:12;;;;;;;;;;;20.50;49.80;;;;;;3873892;23;19998;-87
2022/01/21 02:36:44;;;;;;;;;;;20.50;49.80;;;;;;3874008;23;19924;-88
2022/01/21 02:38:17;;;;;;;;;;;20.50;49.80;;;;;;3873607;22;19966;-87
2022/01/21 02:39:48;;;;;;;;;;;20.50;49.80;;;;;;3874561;23;20350;-87
2022/01/21 02:41:19;;;;;;;;;;;20.50;49.80;;;;;;3874028;23;19927;-87
2022/01/21 02:42:50;;;;;;;;;;;20.50;49.80;;;;;;3873899;22;20335;-87
2022/01/21 02:44:22;;;;;;;;;;;20.50;49.70;;;;;;3873548;23;19919;-87
2022/01/21 02:45:54;;;;;;;;;;;20.50;49.70;;;;;;3873489;22;19924;-87
2022/01/21 02:47:26;;;;;;;;;;;20.50;49.70;;;;;;3872877;22;19927;-87
2022/01/21 02:48:58;;;;;;;;;;;20.50;49.70;;;;;;3875097;23;19926;-87
2022/01/21 02:50:30;;;;;;;;;;;20.50;49.70;;;;;;3874055;23;19923;-88
2022/01/21 02:52:02;;;;;;;;;;;20.50;49.70;;;;;;3874440;23;20330;-87
2022/01/21 02:54:04;;;;;;;;;;;20.50;49.80;;;;;;3873299;22;20531;-87
2022/01/21 02:55:34;;;;;;;;;;;20.50;49.80;;;;;;3874899;23;19920;-86
2022/01/21 02:57:07;;;;;;;;;;;20.40;49.70;;;;;;3873830;23;19965;-87
2022/01/21 02:58:37;;;;;;;;;;;20.40;49.70;;;;;;3873949;22;19987;-88
2022/01/21 03:00:10;;;;;;;;;;;20.50;49.60;;;;;;3873621;22;19926;-87
2022/01/21 03:01:42;;;;;;;;;;;20.50;49.70;;;;;;3874433;23;19924;-87
2022/01/21 03:03:14;;;;;;;;;;;20.50;49.70;;;;;;3873794;22;19924;-87
2022/01/21 03:04:54;;;;;;;;;;;20.50;49.70;;;;;;3873856;23;19928;-87
2022/01/21 03:06:26;;;;;;;;;;;20.50;49.60;;;;;;3874506;23;20335;-86
2022/01/21 03:07:58;;;;;;;;;;;20.50;49.50;;;;;;3873473;22;19943;-87
2022/01/21 03:09:31;;;;;;;;;;;20.50;49.60;;;;;;3874324;23;19923;-86
2022/01/21 03:11:03;;;;;;;;;;;20.50;49.70;;;;;;3873958;23;19919;-87
2022/01/21 03:12:35;;;;;;;;;;;20.50;49.70;;;;;;3873236;22;19919;-86
2022/01/21 03:14:06;;;;;;;;;;;20.40;49.60;;;;;;3873974;23;19998;-86
2022/01/21 03:15:38;;;;;;;;;;;20.40;49.60;;;;;;3872772;22;19919;-88
2022/01/21 03:17:10;;;;;;;;;;;20.40;49.70;;;;;;3874120;23;19978;-87
2022/01/21 03:18:40;;;;;;;;;;;20.40;49.70;;;;;;3892784;22;19924;-86
2022/01/21 03:20:12;;;;;;;;;;;20.40;49.50;;;;;;3892162;22;19994;-87
2022/01/21 03:21:44;;;;;;;;;;;20.40;49.50;;;;;;3893548;22;19923;-87
2022/01/21 03:23:18;;;;;;;;;;;20.40;49.60;;;;;;3892142;22;19920;-86
2022/01/21 03:24:51;;;;;;;;;;;20.40;49.60;;;;;;3893792;22;19923;-87
2022/01/21 03:26:23;;;;;;;;;;;20.40;49.60;;;;;;3893504;22;19973;-87
2022/01/21 03:27:55;;;;;;;;;;;20.40;49.50;;;;;;3892325;22;19919;-87
2022/01/21 03:29:27;;;;;;;;;;;20.50;49.50;;;;;;3893556;22;19919;-87
2022/01/21 03:30:58;;;;;;;;;;;20.40;49.50;;;;;;3880152;22;19919;-87
2022/01/21 03:32:30;;;;;;;;;;;20.40;49.50;;;;;;3873791;22;19931;-87
2022/01/21 03:34:02;;;;;;;;;;;20.40;49.50;;;;;;3874395;23;19998;-86
2022/01/21 03:35:33;;;;;;;;;;;20.40;49.50;;;;;;3874956;23;19927;-87
2022/01/21 03:37:05;;;;;;;;;;;20.40;49.40;;;;;;3875517;23;19920;-86
2022/01/21 03:38:37;;;;;;;;;;;20.40;49.40;;;;;;3873754;22;20002;-87
2022/01/21 03:40:10;;;;;;;;;;;20.40;49.50;;;;;;3875681;23;20309;-87
2022/01/21 03:41:42;;;;;;;;;;;20.40;49.40;;;;;;3875268;23;20543;-86
2022/01/21 03:43:15;;;;;;;;;;;20.40;49.40;;;;;;3873596;22;19943;-86
2022/01/21 03:44:47;;;;;;;;;;;20.40;49.30;;;;;;3875363;23;19919;-87
2022/01/21 03:46:18;;;;;;;;;;;20.50;49.40;;;;;;3874374;22;19973;-87
2022/01/21 03:47:52;;;;;;;;;;;20.40;49.30;;;;;;3874488;22;19923;-86
2022/01/21 03:49:23;;;;;;;;;;;20.40;49.30;;;;;;3874765;23;19927;-87
2022/01/21 03:50:54;;;;;;;;;;;20.50;49.30;;;;;;3875037;23;19923;-88
2022/01/21 03:52:25;;;;;;;;;;;20.40;49.30;;;;;;3875308;22;19966;-87
2022/01/21 03:53:57;;;;;;;;;;;20.40;49.20;;;;;;3874144;23;19927;-88
2022/01/21 03:55:30;;;;;;;;;;;20.40;49.20;;;;;;3875243;23;20305;-86
2022/01/21 03:57:02;;;;;;;;;;;20.50;49.20;;;;;;3875217;23;19919;-87
2022/01/21 03:58:33;;;;;;;;;;;20.50;49.10;;;;;;3874643;22;19920;-88
2022/01/21 04:00:05;;;;;;;;;;;20.50;49.20;;;;;;3873881;22;19919;-87
2022/01/21 04:01:36;;;;;;;;;;;20.50;49.20;;;;;;3875202;23;19915;-87
2022/01/21 04:03:08;;;;;;;;;;;20.50;49.10;;;;;;3874136;22;19924;-87
2022/01/21 04:04:40;;;;;;;;;;;20.50;49.10;;;;;;3875175;23;20296;-87
2022/01/21 04:06:11;;;;;;;;;;;20.50;49.10;;;;;;3874876;23;19969;-86
2022/01/21 04:07:43;;;;;;;;;;;20.50;49.20;;;;;;3874799;22;19989;-87
2022/01/21 04:09:15;;;;;;;;;;;20.50;49.00;;;;;;3874565;23;20326;-87
2022/01/21 04:10:48;;;;;;;;;;;20.50;49.00;;;;;;3875205;23;19919;-86
2022/01/21 04:12:20;;;;;;;;;;;20.50;49.00;;;;;;3874795;22;19923;-86
2022/01/21 04:13:54;;;;;;;;;;;20.50;49.20;;;;;;3874617;23;20247;-86
2022/01/21 04:15:26;;;;;;;;;;;20.50;49.70;;;;;;3873901;22;19919;-87
2022/01/21 04:16:57;;;;;;;;;;;20.50;49.20;;;;;;3874718;23;19920;-87
2022/01/21 04:18:30;;;;;;;;;;;20.50;49.10;;;;;;3875026;22;20289;-86
2022/01/21 04:20:01;;;;;;;;;;;20.50;49.00;;;;;;3874269;23;19920;-87
2022/01/21 04:21:33;;;;;;;;;;;20.50;49.00;;;;;;3874857;23;19920;-86
2022/01/21 04:23:05;;;;;;;;;;;20.50;49.00;;;;;;3873934;22;20364;-87
2022/01/21 04:24:37;;;;;;;;;;;20.50;49.00;;;;;;3875262;23;20303;-86
2022/01/21 04:26:11;;;;;;;;;;;20.50;48.90;;;;;;3875771;23;19919;-87
2022/01/21 04:27:42;;;;;;;;;;;20.50;48.80;;;;;;3873946;22;19920;-87
2022/01/21 04:29:15;;;;;;;;;;;20.60;48.80;;;;;;3875071;23;19919;-87
2022/01/21 04:30:46;;;;;;;;;;;20.60;48.80;;;;;;3874657;22;19943;-86
2022/01/21 04:32:18;;;;;;;;;;;20.60;48.70;;;;;;3874384;22;19920;-86
2022/01/21 04:33:49;;;;;;;;;;;20.60;48.70;;;;;;3873867;23;19970;-87
2022/01/21 04:35:21;;;;;;;;;;;20.60;48.70;;;;;;3875001;23;19923;-87
2022/01/21 04:36:53;;;;;;;;;;;20.60;48.60;;;;;;3874938;23;20317;-87
2022/01/21 04:38:25;;;;;;;;;;;20.70;48.70;;;;;;3874271;22;19923;-87
2022/01/21 04:40:03;;;;;;;;;;;20.70;48.60;;;;;;3875164;23;19930;-86
2022/01/21 04:47:12;;;;;;;;;;;20.70;48.60;;;;;;3875358;23;19920;-87
2022/01/21 04:47:18;;;;;;;;;;;20.70;48.50;;;;;;3874477;23;19947;-86
2022/01/21 04:48:50;;;;;;;;;;;20.70;48.60;;;;;;3874717;23;19919;-86
2022/01/21 04:50:21;;;;;;;;;;;20.70;48.50;;;;;;3874503;23;19928;-86
2022/01/21 04:52:02;;;;;;;;;;;20.70;48.50;;;;;;3875629;23;19919;-87
2022/01/21 04:53:34;;;;;;;;;;;20.70;48.50;;;;;;3891031;22;19919;-86
2022/01/21 04:55:06;;;;;;;;;;;20.70;48.50;;;;;;3893810;22;19989;-87
2022/01/21 04:56:39;;;;;;;;;;;20.70;48.50;;;;;;3893792;22;19927;-87
2022/01/21 04:58:11;;;;;;;;;;;20.70;48.50;;;;;;3893396;22;19919;-88
2022/01/21 04:59:42;;;;;;;;;;;20.70;48.40;;;;;;3894310;22;19980;-86
2022/01/21 05:01:14;;;;;;;;;;;20.70;48.50;;;;;;3878257;22;20254;-87
2022/01/21 05:02:46;;;;;;;;;;;20.60;48.50;;;;;;3873895;22;19970;-87
2022/01/21 05:04:18;;;;;;;;;;;20.60;48.50;;;;;;3874624;23;19995;-86
2022/01/21 05:05:50;;;;;;;;;;;20.60;48.50;;;;;;3874608;23;20334;-87
2022/01/21 05:07:25;;;;;;;;;;;20.60;48.50;;;;;;3874845;22;19959;-86
2022/01/21 05:08:56;;;;;;;;;;;20.60;48.50;;;;;;3874396;23;19919;-86
2022/01/21 05:10:28;;;;;;;;;;;20.60;48.50;;;;;;3875774;23;19973;-86
2022/01/21 05:12:00;;;;;;;;;;;20.60;48.60;;;;;;3875734;23;19920;-86
2022/01/21 05:13:38;;;;;;;;;;;20.60;48.60;;;;;;3872405;22;19994;-86
2022/01/21 05:15:17;;;;;;;;;;;20.60;48.60;;;;;;3874949;22;19924;-86
2022/01/21 05:16:51;;;;;;;;;;;20.60;48.60;;;;;;3874643;23;19919;-86
2022/01/21 05:18:22;;;;;;;;;;;20.60;48.70;;;;;;3874375;22;20301;-86
2022/01/21 05:19:54;;;;;;;;;;;20.60;48.70;;;;;;3875020;23;19924;-86
2022/01/21 05:21:26;;;;;;;;;;;20.60;48.70;;;;;;3874850;23;19995;-87
2022/01/21 05:22:58;;;;;;;;;;;20.50;48.70;;;;;;3873366;22;19927;-87
2022/01/21 05:24:30;;;;;;;;;;;20.60;48.70;;;;;;3874098;23;20293;-86
2022/01/21 05:26:01;;;;;;;;;;;20.60;48.70;;;;;;3874414;23;19985;-86
2022/01/21 05:27:34;;;;;;;;;;;20.50;48.60;;;;;;3872668;22;19920;-86
2022/01/21 05:29:06;;;;;;;;;;;20.50;48.60;;;;;;3874637;23;19920;-87
2022/01/21 05:30:38;;;;;;;;;;;20.50;48.60;;;;;;3873549;22;20289;-87
2022/01/21 05:32:09;;;;;;;;;;;20.50;48.60;;;;;;3874135;23;20308;-87
2022/01/21 05:33:41;;;;;;;;;;;20.50;48.60;;;;;;3871444;23;19942;-87
2022/01/21 05:35:13;;;;;;;;;;;20.50;48.70;;;;;;3874273;23;19924;-87
2022/01/21 05:36:45;;;;;;;;;;;20.50;48.70;;;;;;3873860;23;19935;-89
2022/01/21 05:38:16;;;;;;;;;;;20.50;48.60;;;;;;3888263;22;19919;-86
2022/01/21 05:39:49;;;;;;;;;;;20.50;48.60;;;;;;3893717;22;20231;-86
2022/01/21 05:41:22;;;;;;;;;;;20.50;48.60;;;;;;3893639;22;19923;-87
2022/01/21 05:42:56;;;;;;;;;;;20.50;48.60;;;;;;3893625;22;19927;-88
2022/01/21 05:46:37;;;;;;;;;;;20.50;48.60;;;;;;3875996;22;19916;-88
2022/01/21 05:48:09;;;;;;;;;;;20.50;48.60;;;;;;3873917;22;19946;-87
2022/01/21 05:49:41;;;;;;;;;;;20.50;48.60;;;;;;3873375;23;19942;-87
2022/01/21 05:51:12;;;;;;;;;;;20.50;48.60;;;;;;3874513;23;20346;-87
2022/01/21 05:52:46;;;;;;;;;;;20.50;48.50;;;;;;3871466;22;19923;-87
2022/01/21 05:54:24;;;;;;;;;;;20.50;48.50;;;;;;3874767;23;19951;-89
2022/01/21 05:56:01;;;;;;;;;;;20.50;49.20;;;;;;3873917;23;19951;-87
2022/01/21 05:57:32;;;;;;;;;;;20.50;48.50;;;;;;3873427;22;20308;-89
2022/01/21 05:59:06;;;;;;;;;;;20.50;48.50;;;;;;3873484;23;19970;-89
2022/01/21 06:00:40;;;;;;;;;;;20.50;48.50;;;;;;3872811;22;19920;-89
2022/01/21 06:02:12;;;;;;;;;;;20.50;48.50;;;;;;3873385;22;20257;-87
2022/01/21 06:03:43;;;;;;;;;;;20.50;48.50;;;;;;3874702;23;19985;-87
2022/01/21 06:05:15;;;;;;;;;;;20.50;48.50;;;;;;3874716;23;20262;-88
2022/01/21 06:06:47;;;;;;;;;;;20.50;48.50;;;;;;3874876;23;19969;-87
2022/01/21 06:08:19;;;;;;;;;;;20.50;48.40;;;;;;3873262;22;19919;-88
2022/01/21 06:09:50;;;;;;;;;;;20.50;48.50;;;;;;3874266;23;19926;-90
2022/01/21 06:11:22;;;;;;;;;;;20.50;48.50;;;;;;3874763;23;19924;-89
2022/01/21 06:12:55;;;;;;;;;;;20.50;48.50;;;;;;3873936;22;19927;-90
2022/01/21 06:14:39;;;;;;;;;;;20.50;48.60;;;;;;3874956;23;19927;-89
2022/01/21 06:16:11;;;;;;;;;;;20.50;48.60;;;;;;3872983;22;19977;-88
2022/01/21 06:17:44;;;;;;;;;;;20.50;48.70;;;;;;3873978;22;19928;-89
2022/01/21 06:19:28;;;;;;;;;;;;;;;;;;;;;
2022/01/21 06:21:11;;;;;;;;;;;20.50;48.60;;;;;;3861353;23;19919;-88
2022/01/21 06:22:43;;;;;;;;;;;20.50;49.10;;;;;;3873473;22;19978;-88
2022/01/21 06:44:13;;;;;;;;;;;20.60;51.10;;;;;;3835523;23;19909;-89
2022/01/21 06:45:49;;;;;;;;;;;20.60;51.20;;;;;;3817434;23;20255;-90
2022/01/21 06:47:24;;;;;;;;;;;20.50;51.20;;;;;;3852376;22;19920;-89
2022/01/21 06:48:57;;;;;;;;;;;20.60;51.80;;;;;;3875032;23;20254;-89
2022/01/21 06:50:30;;;;;;;;;;;20.50;51.50;;;;;;3874629;23;19920;-91
2022/01/21 06:52:04;;;;;;;;;;;20.50;51.50;;;;;;3875892;23;20015;-90
2022/01/21 06:53:37;;;;;;;;;;;20.50;51.60;;;;;;3874403;22;19920;-89
2022/01/21 06:55:14;;;;;;;;;;;20.50;51.50;;;;;;3874610;23;19984;-90
2022/01/21 06:56:48;;;;;;;;;;;20.50;51.40;;;;;;3874684;23;19920;-89
2022/01/21 06:58:21;;;;;;;;;;;20.50;51.40;;;;;;3871813;22;20277;-90
2022/01/21 06:59:54;;;;;;;;;;;20.50;51.10;;;;;;3874964;23;20534;-88
2022/01/21 07:01:28;;;;;;;;;;;20.50;51.60;;;;;;3869687;22;19919;-89
2022/01/21 07:03:01;;;;;;;;;;;20.50;52.00;;;;;;3872116;22;19924;-89
2022/01/21 07:04:35;;;;;;;;;;;20.50;51.20;;;;;;3874216;23;19924;-89
2022/01/21 07:06:09;;;;;;;;;;;20.50;51.00;;;;;;3874542;23;19965;-89
2022/01/21 07:07:47;;;;;;;;;;;20.50;51.10;;;;;;3870169;22;19927;-89
2022/01/21 07:09:26;;;;;;;;;;;20.50;51.10;;;;;;3875541;23;19923;-88
2022/01/21 07:11:03;;;;;;;;;;;20.50;51.20;;;;;;3875732;23;19919;-90
2022/01/21 07:12:36;;;;;;;;;;;20.50;51.10;;;;;;3874855;22;19969;-88
2022/01/21 07:14:08;;;;;;;;;;;20.50;51.10;;;;;;3875730;23;20001;-91
2022/01/21 07:15:41;;;;;;;;;;;20.50;51.10;;;;;;3874443;22;19958;-89
2022/01/21 07:17:14;;;;;;;;;;;20.50;51.40;;;;;;3874710;22;20293;-89
2022/01/21 07:18:48;;;;;;;;;;;20.50;51.20;;;;;;3875926;23;19978;-90
2022/01/21 09:27:28;;;;;;;;;;;20.90;50.40;;;;;;3873952;22;19919;-92
2022/01/21 09:29:03;;;;;;;;;;;20.90;50.40;;;;;;3877515;23;19973;-93
2022/01/21 09:30:35;;;;;;;;;;;20.90;50.10;;;;;;3874172;22;19985;-92
2022/01/21 09:32:09;;;;;;;;;;;20.90;49.60;;;;;;3875416;23;19982;-91
2022/01/21 09:33:41;;;;;;;;;;;20.90;49.30;;;;;;3873775;23;19992;-92
2022/01/21 09:35:17;;;;;;;;;;;20.90;49.10;;;;;;3875954;22;19936;-92
2022/01/21 09:36:50;;;;;;;;;;;20.90;49.00;;;;;;3877507;23;19920;-92
2022/01/21 09:38:22;;;;;;;;;;;20.90;49.00;;;;;;3867836;23;19924;-92
2022/01/21 09:39:55;;;;;;;;;;;20.90;49.10;;;;;;3875459;23;19939;-93
2022/01/21 09:41:31;;;;;;;;;;;20.90;49.60;;;;;;3876764;23;19928;-92
2022/01/21 09:46:07;;;;;;;;;;;20.90;51.00;;;;;;3876580;22;20305;-92
2022/01/21 09:47:57;;;;;;;;;;;21.00;50.40;;;;;;3861377;22;19990;-93
2022/01/21 11:52:56;;;;;;;;;;;21.40;49.00;;;;;;3874056;22;19931;-90
2022/01/21 11:54:55;;;;;;;;;;;21.40;48.90;;;;;;3885533;23;20350;-93
2022/01/21 11:56:35;;;;;;;;;;;21.40;49.40;;;;;;3861773;23;19920;-92
2022/01/21 11:58:11;;;;;;;;;;;21.40;49.10;;;;;;3860714;22;19985;-92
2022/01/21 11:59:50;;;;;;;;;;;21.40;49.10;;;;;;3859790;23;19926;-93
2022/01/21 12:01:34;;;;;;;;;;;21.40;49.00;;;;;;3845367;23;20258;-93
2022/01/21 12:07:29;;;;;;;;;;;21.40;49.00;;;;;;3863111;23;19943;-94
2022/01/21 12:24:34;;;;;;;;;;;21.30;48.80;;;;;;3804207;23;19913;-94
2022/01/21 12:26:22;;;;;;;;;;;21.30;48.80;;;;;;3840079;23;19924;-94
2022/01/21 12:28:09;;;;;;;;;;;21.40;48.90;;;;;;3858154;23;19920;-94
